sensor_id;sensor_type;location;lat;lon;timestamp;P1;durP1;ratioP1;P2;durP2;ratioP2
66619;SDS011;53484;51.356;6.732;2022-11-15T00:01:14;15.88;;;8.27;;
66619;SDS011;53484;51.356;6.732;2022-11-15T00:03:42;14.48;;;7.93;;
66619;SDS011;53484;51.356;6.732;2022-11-15T00:06:08;17.88;;;10.25;;
66619;SDS011;53484;51.356;6.732;2022-11-15T00:08:34;17.77;;;8.60;;
66619;SDS011;53484;51.356;6.732;2022-11-15T00:11:01;15.27;;;8.80;;
66619;SDS011;53484;51.356;6.732;2022-11-15T00:13:28;16.55;;;8.40;;
66619;SDS011;53484;51.356;6.732;2022-11-15T00:15:57;15.18;;;8.82;;
66619;SDS011;53484;51.356;6.732;2022-11-15T00:18:24;13.65;;;8.30;;
66619;SDS011;53484;51.356;6.732;2022-11-15T00:20:50;16.30;;;7.87;;
66619;SDS011;53484;51.356;6.732;2022-11-15T00:23:16;16.83;;;8.10;;
66619;SDS011;53484;51.356;6.732;2022-11-15T00:25:43;14.82;;;8.40;;
66619;SDS011;53484;51.356;6.732;2022-11-15T00:28:09;13.77;;;7.47;;
66619;SDS011;53484;51.356;6.732;2022-11-15T00:30:35;15.80;;;8.07;;
66619;SDS011;53484;51.356;6.732;2022-11-15T00:33:03;13.03;;;7.13;;
66619;SDS011;53484;51.356;6.732;2022-11-15T00:35:31;15.00;;;8.05;;
66619;SDS011;53484;51.356;6.732;2022-11-15T00:37:57;14.82;;;7.85;;
66619;SDS011;53484;51.356;6.732;2022-11-15T00:40:23;15.30;;;8.18;;
66619;SDS011;53484;51.356;6.732;2022-11-15T00:42:50;14.95;;;7.43;;
66619;SDS011;53484;51.356;6.732;2022-11-15T00:45:16;14.17;;;8.00;;
66619;SDS011;53484;51.356;6.732;2022-11-15T00:47:43;12.50;;;7.88;;
66619;SDS011;53484;51.356;6.732;2022-11-15T00:50:11;18.88;;;8.63;;
66619;SDS011;53484;51.356;6.732;2022-11-15T00:52:37;14.68;;;7.65;;
66619;SDS011;53484;51.356;6.732;2022-11-15T00:55:04;14.85;;;8.15;;
66619;SDS011;53484;51.356;6.732;2022-11-15T00:57:30;15.87;;;7.73;;
66619;SDS011;53484;51.356;6.732;2022-11-15T00:59:57;15.95;;;7.90;;
66619;SDS011;53484;51.356;6.732;2022-11-15T01:02:23;14.68;;;7.47;;
66619;SDS011;53484;51.356;6.732;2022-11-15T01:04:49;11.65;;;6.72;;
66619;SDS011;53484;51.356;6.732;2022-11-15T01:07:17;14.18;;;7.50;;
66619;SDS011;53484;51.356;6.732;2022-11-15T01:09:43;13.87;;;7.30;;
66619;SDS011;53484;51.356;6.732;2022-11-15T01:12:09;14.82;;;7.43;;
66619;SDS011;53484;51.356;6.732;2022-11-15T01:14:35;15.30;;;7.75;;
66619;SDS011;53484;51.356;6.732;2022-11-15T01:17:02;13.00;;;7.25;;
66619;SDS011;53484;51.356;6.732;2022-11-15T01:19:28;17.70;;;7.97;;
66619;SDS011;53484;51.356;6.732;2022-11-15T01:21:54;16.53;;;7.23;;
66619;SDS011;53484;51.356;6.732;2022-11-15T01:24:22;12.98;;;7.22;;
66619;SDS011;53484;51.356;6.732;2022-11-15T01:26:48;12.70;;;6.97;;
66619;SDS011;53484;51.356;6.732;2022-11-15T01:29:15;14.45;;;7.32;;
66619;SDS011;53484;51.356;6.732;2022-11-15T01:31:41;15.00;;;7.63;;
66619;SDS011;53484;51.356;6.732;2022-11-15T01:34:07;11.83;;;7.07;;
66619;SDS011;53484;51.356;6.732;2022-11-15T01:36:33;14.32;;;8.07;;
66619;SDS011;53484;51.356;6.732;2022-11-15T01:39:00;12.70;;;7.15;;
66619;SDS011;53484;51.356;6.732;2022-11-15T01:41:28;13.48;;;7.28;;
66619;SDS011;53484;51.356;6.732;2022-11-15T01:43:55;15.95;;;7.60;;
66619;SDS011;53484;51.356;6.732;2022-11-15T01:46:23;14.43;;;7.20;;
66619;SDS011;53484;51.356;6.732;2022-11-15T01:48:51;12.57;;;6.93;;
66619;SDS011;53484;51.356;6.732;2022-11-15T01:51:18;12.68;;;6.95;;
66619;SDS011;53484;51.356;6.732;2022-11-15T01:53:46;13.10;;;7.20;;
66619;SDS011;53484;51.356;6.732;2022-11-15T01:56:14;14.52;;;6.60;;
66619;SDS011;53484;51.356;6.732;2022-11-15T01:58:43;13.47;;;7.37;;
66619;SDS011;53484;51.356;6.732;2022-11-15T02:01:10;13.70;;;6.93;;
66619;SDS011;53484;51.356;6.732;2022-11-15T02:03:38;16.00;;;7.60;;
66619;SDS011;53484;51.356;6.732;2022-11-15T02:06:07;12.13;;;6.95;;
66619;SDS011;53484;51.356;6.732;2022-11-15T02:08:33;15.20;;;8.00;;
66619;SDS011;53484;51.356;6.732;2022-11-15T02:11:00;11.90;;;7.23;;
66619;SDS011;53484;51.356;6.732;2022-11-15T02:13:26;14.45;;;7.18;;
66619;SDS011;53484;51.356;6.732;2022-11-15T02:15:56;11.30;;;6.88;;
66619;SDS011;53484;51.356;6.732;2022-11-15T02:18:26;14.50;;;6.78;;
66619;SDS011;53484;51.356;6.732;2022-11-15T02:21:09;14.82;;;7.25;;
66619;SDS011;53484;51.356;6.732;2022-11-15T02:23:57;15.80;;;7.10;;
66619;SDS011;53484;51.356;6.732;2022-11-15T02:26:41;13.75;;;7.57;;
66619;SDS011;53484;51.356;6.732;2022-11-15T02:29:13;13.88;;;7.15;;
66619;SDS011;53484;51.356;6.732;2022-11-15T02:31:48;14.38;;;7.10;;
66619;SDS011;53484;51.356;6.732;2022-11-15T02:34:18;14.05;;;7.38;;
66619;SDS011;53484;51.356;6.732;2022-11-15T02:36:48;12.07;;;6.77;;
66619;SDS011;53484;51.356;6.732;2022-11-15T02:39:17;15.18;;;6.93;;
66619;SDS011;53484;51.356;6.732;2022-11-15T02:41:47;14.95;;;7.80;;
66619;SDS011;53484;51.356;6.732;2022-11-15T02:44:17;14.82;;;7.70;;
66619;SDS011;53484;51.356;6.732;2022-11-15T02:46:45;14.48;;;7.00;;
66619;SDS011;53484;51.356;6.732;2022-11-15T02:49:31;11.83;;;7.00;;
66619;SDS011;53484;51.356;6.732;2022-11-15T02:51:58;11.73;;;6.70;;
66619;SDS011;53484;51.356;6.732;2022-11-15T02:54:25;13.52;;;6.82;;
66619;SDS011;53484;51.356;6.732;2022-11-15T02:56:53;13.65;;;7.60;;
66619;SDS011;53484;51.356;6.732;2022-11-15T02:59:24;20.38;;;8.50;;
66619;SDS011;53484;51.356;6.732;2022-11-15T03:01:56;16.47;;;7.47;;
66619;SDS011;53484;51.356;6.732;2022-11-15T03:04:29;18.65;;;7.80;;
66619;SDS011;53484;51.356;6.732;2022-11-15T03:07:04;13.70;;;6.90;;
66619;SDS011;53484;51.356;6.732;2022-11-15T03:09:33;11.80;;;6.80;;
66619;SDS011;53484;51.356;6.732;2022-11-15T03:12:01;15.35;;;8.07;;
66619;SDS011;53484;51.356;6.732;2022-11-15T03:14:30;14.43;;;7.10;;
66619;SDS011;53484;51.356;6.732;2022-11-15T03:17:01;13.55;;;7.43;;
66619;SDS011;53484;51.356;6.732;2022-11-15T03:19:30;13.57;;;7.70;;
66619;SDS011;53484;51.356;6.732;2022-11-15T03:21:59;19.98;;;7.90;;
66619;SDS011;53484;51.356;6.732;2022-11-15T03:24:27;13.50;;;7.25;;
66619;SDS011;53484;51.356;6.732;2022-11-15T03:26:54;13.83;;;8.17;;
66619;SDS011;53484;51.356;6.732;2022-11-15T03:29:24;13.38;;;7.70;;
66619;SDS011;53484;51.356;6.732;2022-11-15T03:31:53;13.65;;;7.88;;
66619;SDS011;53484;51.356;6.732;2022-11-15T03:34:23;14.23;;;7.72;;
66619;SDS011;53484;51.356;6.732;2022-11-15T03:36:52;16.95;;;8.40;;
66619;SDS011;53484;51.356;6.732;2022-11-15T03:39:18;14.67;;;7.00;;
66619;SDS011;53484;51.356;6.732;2022-11-15T03:41:48;14.68;;;7.75;;
66619;SDS011;53484;51.356;6.732;2022-11-15T03:44:16;14.60;;;7.32;;
66619;SDS011;53484;51.356;6.732;2022-11-15T03:46:46;17.67;;;7.63;;
66619;SDS011;53484;51.356;6.732;2022-11-15T03:49:14;16.40;;;7.47;;
66619;SDS011;53484;51.356;6.732;2022-11-15T03:51:41;13.20;;;6.87;;
66619;SDS011;53484;51.356;6.732;2022-11-15T03:54:07;12.63;;;7.65;;
66619;SDS011;53484;51.356;6.732;2022-11-15T03:56:34;16.05;;;7.55;;
66619;SDS011;53484;51.356;6.732;2022-11-15T03:59:01;11.30;;;6.35;;
66619;SDS011;53484;51.356;6.732;2022-11-15T04:01:28;13.60;;;7.10;;
66619;SDS011;53484;51.356;6.732;2022-11-15T04:03:54;13.33;;;7.07;;
66619;SDS011;53484;51.356;6.732;2022-11-15T04:06:20;12.73;;;6.60;;
66619;SDS011;53484;51.356;6.732;2022-11-15T04:08:46;13.52;;;6.88;;
66619;SDS011;53484;51.356;6.732;2022-11-15T04:11:13;10.88;;;6.43;;
66619;SDS011;53484;51.356;6.732;2022-11-15T04:13:39;13.18;;;6.75;;
66619;SDS011;53484;51.356;6.732;2022-11-15T04:16:07;11.07;;;6.53;;
66619;SDS011;53484;51.356;6.732;2022-11-15T04:18:33;13.07;;;7.13;;
66619;SDS011;53484;51.356;6.732;2022-11-15T04:20:59;13.20;;;6.85;;
66619;SDS011;53484;51.356;6.732;2022-11-15T04:23:43;14.55;;;6.70;;
66619;SDS011;53484;51.356;6.732;2022-11-15T04:26:27;14.27;;;6.85;;
66619;SDS011;53484;51.356;6.732;2022-11-15T04:28:53;11.53;;;6.33;;
66619;SDS011;53484;51.356;6.732;2022-11-15T04:31:41;11.98;;;6.35;;
66619;SDS011;53484;51.356;6.732;2022-11-15T04:34:07;10.45;;;6.45;;
66619;SDS011;53484;51.356;6.732;2022-11-15T04:36:33;12.07;;;6.78;;
66619;SDS011;53484;51.356;6.732;2022-11-15T04:39:17;11.50;;;6.10;;
66619;SDS011;53484;51.356;6.732;2022-11-15T04:41:43;11.80;;;6.43;;
66619;SDS011;53484;51.356;6.732;2022-11-15T04:44:09;12.73;;;6.35;;
66619;SDS011;53484;51.356;6.732;2022-11-15T04:46:36;11.57;;;6.32;;
66619;SDS011;53484;51.356;6.732;2022-11-15T04:49:03;10.68;;;5.78;;
66619;SDS011;53484;51.356;6.732;2022-11-15T04:51:30;13.25;;;6.15;;
66619;SDS011;53484;51.356;6.732;2022-11-15T04:53:56;12.23;;;5.80;;
66619;SDS011;53484;51.356;6.732;2022-11-15T04:56:22;10.85;;;5.22;;
66619;SDS011;53484;51.356;6.732;2022-11-15T04:58:49;8.60;;;5.25;;
66619;SDS011;53484;51.356;6.732;2022-11-15T05:01:15;11.35;;;5.97;;
66619;SDS011;53484;51.356;6.732;2022-11-15T05:03:41;10.57;;;5.70;;
66619;SDS011;53484;51.356;6.732;2022-11-15T05:06:27;10.73;;;5.83;;
66619;SDS011;53484;51.356;6.732;2022-11-15T05:08:53;13.27;;;5.32;;
66619;SDS011;53484;51.356;6.732;2022-11-15T05:11:19;11.48;;;5.72;;
66619;SDS011;53484;51.356;6.732;2022-11-15T05:13:46;11.32;;;5.65;;
66619;SDS011;53484;51.356;6.732;2022-11-15T05:16:12;11.13;;;5.55;;
66619;SDS011;53484;51.356;6.732;2022-11-15T05:18:38;9.77;;;4.60;;
66619;SDS011;53484;51.356;6.732;2022-11-15T05:21:05;11.82;;;5.80;;
66619;SDS011;53484;51.356;6.732;2022-11-15T05:23:33;10.30;;;5.43;;
66619;SDS011;53484;51.356;6.732;2022-11-15T05:26:00;9.95;;;5.63;;
66619;SDS011;53484;51.356;6.732;2022-11-15T05:28:26;10.32;;;5.57;;
66619;SDS011;53484;51.356;6.732;2022-11-15T05:30:52;10.93;;;5.60;;
66619;SDS011;53484;51.356;6.732;2022-11-15T05:33:19;11.52;;;5.93;;
66619;SDS011;53484;51.356;6.732;2022-11-15T05:35:45;11.02;;;5.80;;
66619;SDS011;53484;51.356;6.732;2022-11-15T05:38:12;12.25;;;6.28;;
66619;SDS011;53484;51.356;6.732;2022-11-15T05:40:40;12.05;;;6.20;;
66619;SDS011;53484;51.356;6.732;2022-11-15T05:43:06;10.17;;;5.73;;
66619;SDS011;53484;51.356;6.732;2022-11-15T05:45:33;10.57;;;5.55;;
66619;SDS011;53484;51.356;6.732;2022-11-15T05:47:59;11.52;;;6.47;;
66619;SDS011;53484;51.356;6.732;2022-11-15T05:50:27;10.75;;;5.78;;
66619;SDS011;53484;51.356;6.732;2022-11-15T05:52:53;11.45;;;6.10;;
66619;SDS011;53484;51.356;6.732;2022-11-15T05:55:20;11.40;;;6.33;;
66619;SDS011;53484;51.356;6.732;2022-11-15T05:57:47;11.88;;;6.63;;
66619;SDS011;53484;51.356;6.732;2022-11-15T06:00:14;14.30;;;7.82;;
66619;SDS011;53484;51.356;6.732;2022-11-15T06:02:40;13.13;;;7.10;;
66619;SDS011;53484;51.356;6.732;2022-11-15T06:05:07;20.83;;;7.55;;
66619;SDS011;53484;51.356;6.732;2022-11-15T06:07:34;12.87;;;7.40;;
66619;SDS011;53484;51.356;6.732;2022-11-15T06:10:00;16.00;;;7.10;;
66619;SDS011;53484;51.356;6.732;2022-11-15T06:12:27;15.43;;;7.53;;
66619;SDS011;53484;51.356;6.732;2022-11-15T06:14:55;15.50;;;6.95;;
66619;SDS011;53484;51.356;6.732;2022-11-15T06:17:21;13.85;;;7.28;;
66619;SDS011;53484;51.356;6.732;2022-11-15T06:19:48;15.63;;;7.17;;
66619;SDS011;53484;51.356;6.732;2022-11-15T06:22:14;13.60;;;6.47;;
66619;SDS011;53484;51.356;6.732;2022-11-15T06:24:40;11.65;;;6.47;;
66619;SDS011;53484;51.356;6.732;2022-11-15T06:27:10;10.65;;;6.50;;
66619;SDS011;53484;51.356;6.732;2022-11-15T06:29:36;12.70;;;7.85;;
66619;SDS011;53484;51.356;6.732;2022-11-15T06:32:04;10.57;;;6.07;;
66619;SDS011;53484;51.356;6.732;2022-11-15T06:34:30;14.18;;;5.88;;
66619;SDS011;53484;51.356;6.732;2022-11-15T06:36:56;9.73;;;4.90;;
66619;SDS011;53484;51.356;6.732;2022-11-15T06:39:23;8.95;;;5.30;;
66619;SDS011;53484;51.356;6.732;2022-11-15T06:41:49;8.80;;;4.80;;
66619;SDS011;53484;51.356;6.732;2022-11-15T06:44:15;8.87;;;4.37;;
66619;SDS011;53484;51.356;6.732;2022-11-15T06:46:42;11.00;;;4.75;;
66619;SDS011;53484;51.356;6.732;2022-11-15T06:49:09;9.02;;;4.70;;
66619;SDS011;53484;51.356;6.732;2022-11-15T06:51:36;9.38;;;4.70;;
66619;SDS011;53484;51.356;6.732;2022-11-15T06:54:02;8.88;;;4.70;;
66619;SDS011;53484;51.356;6.732;2022-11-15T06:56:28;7.43;;;4.47;;
66619;SDS011;53484;51.356;6.732;2022-11-15T06:58:55;8.93;;;4.57;;
66619;SDS011;53484;51.356;6.732;2022-11-15T07:01:21;10.20;;;4.55;;
66619;SDS011;53484;51.356;6.732;2022-11-15T07:03:47;8.02;;;4.03;;
66619;SDS011;53484;51.356;6.732;2022-11-15T07:06:15;6.60;;;4.05;;
66619;SDS011;53484;51.356;6.732;2022-11-15T07:08:41;9.70;;;4.33;;
66619;SDS011;53484;51.356;6.732;2022-11-15T07:11:07;6.90;;;3.70;;
66619;SDS011;53484;51.356;6.732;2022-11-15T07:13:34;8.73;;;4.10;;
66619;SDS011;53484;51.356;6.732;2022-11-15T07:16:01;7.28;;;3.92;;
66619;SDS011;53484;51.356;6.732;2022-11-15T07:18:28;7.05;;;3.63;;
66619;SDS011;53484;51.356;6.732;2022-11-15T07:20:54;5.90;;;3.77;;
66619;SDS011;53484;51.356;6.732;2022-11-15T07:23:22;5.97;;;3.38;;
66619;SDS011;53484;51.356;6.732;2022-11-15T07:25:48;7.82;;;3.35;;
66619;SDS011;53484;51.356;6.732;2022-11-15T07:28:15;6.35;;;3.55;;
66619;SDS011;53484;51.356;6.732;2022-11-15T07:30:41;8.90;;;4.10;;
66619;SDS011;53484;51.356;6.732;2022-11-15T07:33:07;6.37;;;3.60;;
66619;SDS011;53484;51.356;6.732;2022-11-15T07:35:33;6.82;;;3.10;;
66619;SDS011;53484;51.356;6.732;2022-11-15T07:38:00;7.40;;;3.50;;
66619;SDS011;53484;51.356;6.732;2022-11-15T07:40:29;11.35;;;4.00;;
66619;SDS011;53484;51.356;6.732;2022-11-15T07:42:58;7.32;;;4.03;;
66619;SDS011;53484;51.356;6.732;2022-11-15T07:45:24;5.50;;;2.90;;
66619;SDS011;53484;51.356;6.732;2022-11-15T07:47:52;5.40;;;1.80;;
66619;SDS011;53484;51.356;6.732;2022-11-15T07:50:18;6.00;;;1.88;;
66619;SDS011;53484;51.356;6.732;2022-11-15T07:52:44;3.45;;;1.00;;
66619;SDS011;53484;51.356;6.732;2022-11-15T07:55:11;4.97;;;1.10;;
66619;SDS011;53484;51.356;6.732;2022-11-15T07:57:39;3.13;;;1.20;;
66619;SDS011;53484;51.356;6.732;2022-11-15T08:00:05;3.40;;;0.77;;
66619;SDS011;53484;51.356;6.732;2022-11-15T08:02:32;3.60;;;0.80;;
66619;SDS011;53484;51.356;6.732;2022-11-15T08:04:58;5.18;;;1.00;;
66619;SDS011;53484;51.356;6.732;2022-11-15T08:07:25;5.40;;;1.70;;
66619;SDS011;53484;51.356;6.732;2022-11-15T08:09:53;2.83;;;1.27;;
66619;SDS011;53484;51.356;6.732;2022-11-15T08:12:20;3.10;;;0.93;;
66619;SDS011;53484;51.356;6.732;2022-11-15T08:14:47;3.58;;;1.05;;
66619;SDS011;53484;51.356;6.732;2022-11-15T08:17:15;3.20;;;1.40;;
66619;SDS011;53484;51.356;6.732;2022-11-15T08:19:42;3.97;;;1.20;;
66619;SDS011;53484;51.356;6.732;2022-11-15T08:22:09;3.00;;;0.97;;
66619;SDS011;53484;51.356;6.732;2022-11-15T08:24:35;5.80;;;1.20;;
66619;SDS011;53484;51.356;6.732;2022-11-15T08:27:02;3.58;;;1.30;;
66619;SDS011;53484;51.356;6.732;2022-11-15T08:29:28;6.70;;;2.53;;
66619;SDS011;53484;51.356;6.732;2022-11-15T08:31:56;5.78;;;1.80;;
66619;SDS011;53484;51.356;6.732;2022-11-15T08:34:22;4.57;;;1.60;;
66619;SDS011;53484;51.356;6.732;2022-11-15T08:36:48;5.50;;;2.10;;
66619;SDS011;53484;51.356;6.732;2022-11-15T08:39:15;6.85;;;2.90;;
66619;SDS011;53484;51.356;6.732;2022-11-15T08:41:41;6.80;;;3.72;;
66619;SDS011;53484;51.356;6.732;2022-11-15T08:44:08;5.35;;;2.25;;
66619;SDS011;53484;51.356;6.732;2022-11-15T08:46:34;14.33;;;9.30;;
66619;SDS011;53484;51.356;6.732;2022-11-15T08:49:02;9.27;;;6.10;;
66619;SDS011;53484;51.356;6.732;2022-11-15T08:51:28;8.90;;;4.10;;
66619;SDS011;53484;51.356;6.732;2022-11-15T08:53:54;5.70;;;2.35;;
66619;SDS011;53484;51.356;6.732;2022-11-15T08:56:20;4.70;;;1.83;;
66619;SDS011;53484;51.356;6.732;2022-11-15T08:58:47;4.17;;;1.40;;
66619;SDS011;53484;51.356;6.732;2022-11-15T09:01:15;6.35;;;2.80;;
66619;SDS011;53484;51.356;6.732;2022-11-15T09:03:42;7.68;;;4.18;;
66619;SDS011;53484;51.356;6.732;2022-11-15T09:06:10;6.13;;;3.05;;
66619;SDS011;53484;51.356;6.732;2022-11-15T09:08:36;6.57;;;2.80;;
66619;SDS011;53484;51.356;6.732;2022-11-15T09:11:02;5.50;;;2.07;;
66619;SDS011;53484;51.356;6.732;2022-11-15T09:13:29;5.05;;;2.30;;
66619;SDS011;53484;51.356;6.732;2022-11-15T09:15:56;6.07;;;2.50;;
66619;SDS011;53484;51.356;6.732;2022-11-15T09:18:23;6.03;;;2.45;;
66619;SDS011;53484;51.356;6.732;2022-11-15T09:20:49;4.75;;;2.50;;
66619;SDS011;53484;51.356;6.732;2022-11-15T09:23:17;4.97;;;2.50;;
66619;SDS011;53484;51.356;6.732;2022-11-15T09:25:43;4.45;;;2.25;;
66619;SDS011;53484;51.356;6.732;2022-11-15T09:28:09;6.25;;;3.22;;
66619;SDS011;53484;51.356;6.732;2022-11-15T09:30:35;7.43;;;2.58;;
66619;SDS011;53484;51.356;6.732;2022-11-15T09:33:05;7.03;;;3.22;;
66619;SDS011;53484;51.356;6.732;2022-11-15T09:35:32;6.23;;;3.47;;
66619;SDS011;53484;51.356;6.732;2022-11-15T09:37:58;10.50;;;3.72;;
66619;SDS011;53484;51.356;6.732;2022-11-15T09:40:26;5.20;;;2.70;;
66619;SDS011;53484;51.356;6.732;2022-11-15T09:42:57;5.45;;;2.58;;
66619;SDS011;53484;51.356;6.732;2022-11-15T09:45:28;5.95;;;2.20;;
66619;SDS011;53484;51.356;6.732;2022-11-15T09:48:00;8.20;;;2.43;;
66619;SDS011;53484;51.356;6.732;2022-11-15T09:50:31;7.47;;;2.72;;
66619;SDS011;53484;51.356;6.732;2022-11-15T09:52:57;5.40;;;2.25;;
66619;SDS011;53484;51.356;6.732;2022-11-15T09:55:28;5.53;;;2.25;;
66619;SDS011;53484;51.356;6.732;2022-11-15T09:58:00;3.65;;;1.95;;
66619;SDS011;53484;51.356;6.732;2022-11-15T10:00:28;4.17;;;1.60;;
66619;SDS011;53484;51.356;6.732;2022-11-15T10:02:58;4.38;;;1.70;;
66619;SDS011;53484;51.356;6.732;2022-11-15T10:05:28;4.43;;;1.60;;
66619;SDS011;53484;51.356;6.732;2022-11-15T10:07:56;5.38;;;1.30;;
66619;SDS011;53484;51.356;6.732;2022-11-15T10:10:27;5.47;;;1.10;;
66619;SDS011;53484;51.356;6.732;2022-11-15T10:12:55;4.87;;;1.30;;
66619;SDS011;53484;51.356;6.732;2022-11-15T10:15:22;6.38;;;1.38;;
66619;SDS011;53484;51.356;6.732;2022-11-15T10:17:54;4.20;;;1.23;;
66619;SDS011;53484;51.356;6.732;2022-11-15T10:20:23;4.20;;;1.30;;
66619;SDS011;53484;51.356;6.732;2022-11-15T10:22:51;5.38;;;1.20;;
66619;SDS011;53484;51.356;6.732;2022-11-15T10:25:19;3.83;;;1.50;;
66619;SDS011;53484;51.356;6.732;2022-11-15T10:27:50;3.55;;;1.27;;
66619;SDS011;53484;51.356;6.732;2022-11-15T10:30:17;4.22;;;1.50;;
66619;SDS011;53484;51.356;6.732;2022-11-15T10:32:44;4.45;;;1.58;;
66619;SDS011;53484;51.356;6.732;2022-11-15T10:35:19;5.68;;;1.65;;
66619;SDS011;53484;51.356;6.732;2022-11-15T10:37:45;4.63;;;1.33;;
66619;SDS011;53484;51.356;6.732;2022-11-15T10:40:15;6.50;;;1.45;;
66619;SDS011;53484;51.356;6.732;2022-11-15T10:42:42;3.85;;;1.40;;
66619;SDS011;53484;51.356;6.732;2022-11-15T10:45:15;4.07;;;1.38;;
66619;SDS011;53484;51.356;6.732;2022-11-15T10:47:48;3.58;;;1.35;;
66619;SDS011;53484;51.356;6.732;2022-11-15T10:50:25;4.87;;;1.40;;
66619;SDS011;53484;51.356;6.732;2022-11-15T10:52:52;3.85;;;1.45;;
66619;SDS011;53484;51.356;6.732;2022-11-15T10:55:23;3.55;;;1.55;;
66619;SDS011;53484;51.356;6.732;2022-11-15T10:57:51;4.15;;;1.63;;
66619;SDS011;53484;51.356;6.732;2022-11-15T11:00:30;4.07;;;1.55;;
66619;SDS011;53484;51.356;6.732;2022-11-15T11:02:58;4.47;;;1.33;;
66619;SDS011;53484;51.356;6.732;2022-11-15T11:05:26;3.90;;;1.70;;
66619;SDS011;53484;51.356;6.732;2022-11-15T11:07:55;5.60;;;1.70;;
66619;SDS011;53484;51.356;6.732;2022-11-15T11:10:21;3.75;;;1.40;;
66619;SDS011;53484;51.356;6.732;2022-11-15T11:12:47;4.28;;;1.30;;
66619;SDS011;53484;51.356;6.732;2022-11-15T11:15:14;6.77;;;1.93;;
66619;SDS011;53484;51.356;6.732;2022-11-15T11:17:46;4.72;;;1.25;;
66619;SDS011;53484;51.356;6.732;2022-11-15T11:20:18;3.58;;;1.27;;
66619;SDS011;53484;51.356;6.732;2022-11-15T11:22:50;3.45;;;1.55;;
66619;SDS011;53484;51.356;6.732;2022-11-15T11:25:19;5.30;;;1.70;;
66619;SDS011;53484;51.356;6.732;2022-11-15T11:27:54;6.63;;;2.07;;
66619;SDS011;53484;51.356;6.732;2022-11-15T11:30:24;7.28;;;1.40;;
66619;SDS011;53484;51.356;6.732;2022-11-15T11:33:06;3.65;;;1.17;;
66619;SDS011;53484;51.356;6.732;2022-11-15T11:35:34;5.63;;;1.20;;
66619;SDS011;53484;51.356;6.732;2022-11-15T11:38:10;3.58;;;1.00;;
66619;SDS011;53484;51.356;6.732;2022-11-15T11:40:43;4.33;;;0.83;;
66619;SDS011;53484;51.356;6.732;2022-11-15T11:43:12;3.65;;;1.15;;
66619;SDS011;53484;51.356;6.732;2022-11-15T11:45:46;6.18;;;1.30;;
66619;SDS011;53484;51.356;6.732;2022-11-15T11:48:19;3.38;;;0.90;;
66619;SDS011;53484;51.356;6.732;2022-11-15T11:50:47;3.83;;;1.08;;
66619;SDS011;53484;51.356;6.732;2022-11-15T11:53:14;3.13;;;0.90;;
66619;SDS011;53484;51.356;6.732;2022-11-15T11:55:42;4.35;;;1.02;;
66619;SDS011;53484;51.356;6.732;2022-11-15T11:58:11;6.13;;;0.80;;
66619;SDS011;53484;51.356;6.732;2022-11-15T12:00:39;5.82;;;1.10;;
66619;SDS011;53484;51.356;6.732;2022-11-15T12:03:08;4.85;;;1.00;;
66619;SDS011;53484;51.356;6.732;2022-11-15T12:05:37;3.17;;;0.87;;
66619;SDS011;53484;51.356;6.732;2022-11-15T12:08:14;3.83;;;0.73;;
66619;SDS011;53484;51.356;6.732;2022-11-15T12:10:41;3.60;;;0.93;;
66619;SDS011;53484;51.356;6.732;2022-11-15T12:13:12;4.47;;;0.80;;
66619;SDS011;53484;51.356;6.732;2022-11-15T12:15:41;4.30;;;0.75;;
66619;SDS011;53484;51.356;6.732;2022-11-15T12:18:08;3.50;;;0.80;;
66619;SDS011;53484;51.356;6.732;2022-11-15T12:20:39;3.30;;;0.88;;
66619;SDS011;53484;51.356;6.732;2022-11-15T12:23:08;3.90;;;0.55;;
66619;SDS011;53484;51.356;6.732;2022-11-15T12:25:40;5.70;;;1.00;;
66619;SDS011;53484;51.356;6.732;2022-11-15T12:28:11;3.33;;;1.00;;
66619;SDS011;53484;51.356;6.732;2022-11-15T12:30:42;3.57;;;1.10;;
66619;SDS011;53484;51.356;6.732;2022-11-15T12:35:59;4.80;;;1.13;;
66619;SDS011;53484;51.356;6.732;2022-11-15T12:41:17;3.75;;;0.90;;
66619;SDS011;53484;51.356;6.732;2022-11-15T12:43:43;3.27;;;1.03;;
66619;SDS011;53484;51.356;6.732;2022-11-15T12:46:11;3.90;;;1.13;;
66619;SDS011;53484;51.356;6.732;2022-11-15T12:48:45;4.70;;;1.20;;
66619;SDS011;53484;51.356;6.732;2022-11-15T12:51:13;4.88;;;1.10;;
66619;SDS011;53484;51.356;6.732;2022-11-15T12:53:39;5.22;;;1.20;;
66619;SDS011;53484;51.356;6.732;2022-11-15T12:56:09;4.57;;;1.10;;
66619;SDS011;53484;51.356;6.732;2022-11-15T12:58:44;4.28;;;1.25;;
66619;SDS011;53484;51.356;6.732;2022-11-15T13:01:51;4.07;;;1.02;;
66619;SDS011;53484;51.356;6.732;2022-11-15T13:04:14;3.90;;;0.93;;
66619;SDS011;53484;51.356;6.732;2022-11-15T13:06:49;4.97;;;1.13;;
66619;SDS011;53484;51.356;6.732;2022-11-15T13:12:01;4.00;;;0.80;;
66619;SDS011;53484;51.356;6.732;2022-11-15T13:14:37;3.70;;;1.08;;
66619;SDS011;53484;51.356;6.732;2022-11-15T13:17:20;4.65;;;0.80;;
66619;SDS011;53484;51.356;6.732;2022-11-15T13:19:49;7.65;;;1.00;;
66619;SDS011;53484;51.356;6.732;2022-11-15T13:22:19;5.83;;;0.90;;
66619;SDS011;53484;51.356;6.732;2022-11-15T13:25:03;4.75;;;1.00;;
66619;SDS011;53484;51.356;6.732;2022-11-15T13:27:30;4.75;;;0.90;;
66619;SDS011;53484;51.356;6.732;2022-11-15T13:29:57;4.20;;;1.02;;
66619;SDS011;53484;51.356;6.732;2022-11-15T13:32:23;5.72;;;1.10;;
66619;SDS011;53484;51.356;6.732;2022-11-15T13:34:49;4.43;;;0.93;;
66619;SDS011;53484;51.356;6.732;2022-11-15T13:37:29;4.15;;;0.80;;
66619;SDS011;53484;51.356;6.732;2022-11-15T13:40:00;7.03;;;1.20;;
66619;SDS011;53484;51.356;6.732;2022-11-15T13:42:36;5.93;;;0.70;;
66619;SDS011;53484;51.356;6.732;2022-11-15T13:45:04;7.18;;;1.50;;
66619;SDS011;53484;51.356;6.732;2022-11-15T13:47:30;5.07;;;1.40;;
66619;SDS011;53484;51.356;6.732;2022-11-15T13:49:57;6.20;;;1.70;;
66619;SDS011;53484;51.356;6.732;2022-11-15T13:52:24;4.97;;;1.30;;
66619;SDS011;53484;51.356;6.732;2022-11-15T13:54:56;3.67;;;0.80;;
66619;SDS011;53484;51.356;6.732;2022-11-15T13:57:24;4.95;;;1.20;;
66619;SDS011;53484;51.356;6.732;2022-11-15T13:59:51;3.40;;;0.70;;
66619;SDS011;53484;51.356;6.732;2022-11-15T14:02:19;4.03;;;1.15;;
66619;SDS011;53484;51.356;6.732;2022-11-15T14:04:46;5.63;;;1.10;;
66619;SDS011;53484;51.356;6.732;2022-11-15T14:07:15;5.35;;;0.82;;
66619;SDS011;53484;51.356;6.732;2022-11-15T14:09:42;2.53;;;0.80;;
66619;SDS011;53484;51.356;6.732;2022-11-15T14:15:18;3.53;;;0.90;;
66619;SDS011;53484;51.356;6.732;2022-11-15T14:17:49;4.57;;;1.27;;
66619;SDS011;53484;51.356;6.732;2022-11-15T14:20:20;3.08;;;1.10;;
66619;SDS011;53484;51.356;6.732;2022-11-15T14:22:51;4.53;;;0.77;;
66619;SDS011;53484;51.356;6.732;2022-11-15T14:25:18;6.20;;;1.00;;
66619;SDS011;53484;51.356;6.732;2022-11-15T14:30:28;3.33;;;0.85;;
66619;SDS011;53484;51.356;6.732;2022-11-15T14:32:55;6.07;;;1.08;;
66619;SDS011;53484;51.356;6.732;2022-11-15T14:35:22;4.00;;;1.35;;
66619;SDS011;53484;51.356;6.732;2022-11-15T14:37:48;7.53;;;1.20;;
66619;SDS011;53484;51.356;6.732;2022-11-15T14:40:16;5.63;;;0.90;;
66619;SDS011;53484;51.356;6.732;2022-11-15T14:42:43;2.78;;;0.93;;
66619;SDS011;53484;51.356;6.732;2022-11-15T14:45:11;4.57;;;1.25;;
66619;SDS011;53484;51.356;6.732;2022-11-15T14:47:39;3.65;;;1.08;;
66619;SDS011;53484;51.356;6.732;2022-11-15T14:50:05;5.30;;;1.00;;
66619;SDS011;53484;51.356;6.732;2022-11-15T14:52:32;3.25;;;1.20;;
66619;SDS011;53484;51.356;6.732;2022-11-15T14:55:00;5.78;;;1.75;;
66619;SDS011;53484;51.356;6.732;2022-11-15T14:57:27;2.97;;;1.25;;
66619;SDS011;53484;51.356;6.732;2022-11-15T14:59:53;3.88;;;1.23;;
66619;SDS011;53484;51.356;6.732;2022-11-15T15:02:20;5.90;;;1.50;;